createdAt,value
2022-10-14T00:01:31.456Z,99.90
2022-10-14T00:04:00.887Z,99.90
2022-10-14T00:06:31.348Z,99.90
2022-10-14T00:09:02.769Z,99.90
2022-10-14T00:11:33.157Z,99.90
2022-10-14T00:14:05.807Z,99.90
2022-10-14T00:16:37.796Z,99.90
2022-10-14T00:19:07.474Z,99.90
2022-10-14T00:21:37.815Z,99.90
2022-10-14T00:24:07.704Z,99.90
2022-10-14T00:26:38.486Z,99.90
2022-10-14T00:29:09.449Z,99.90
2022-10-14T00:31:39.242Z,99.90
2022-10-14T00:34:07.946Z,99.90
2022-10-14T00:36:36.319Z,99.90
2022-10-14T00:39:04.917Z,99.90
2022-10-14T00:41:36.297Z,99.90
2022-10-14T00:44:07.282Z,99.90
2022-10-14T00:46:38.131Z,99.90
2022-10-14T00:49:13.368Z,99.90
2022-10-14T00:51:43.817Z,99.90
2022-10-14T00:54:16.147Z,99.90
2022-10-14T00:56:46.199Z,99.90
2022-10-14T00:59:15.559Z,99.90
2022-10-14T01:01:45.235Z,99.90
2022-10-14T01:04:15.367Z,99.90
2022-10-14T01:06:53.450Z,99.90
2022-10-14T01:09:29.052Z,99.90
2022-10-14T01:12:27.949Z,99.90
2022-10-14T01:15:05.971Z,99.90
2022-10-14T01:17:44.320Z,99.90
2022-10-14T01:20:56.180Z,99.90
2022-10-14T01:23:57.707Z,99.90
2022-10-14T01:26:56.109Z,99.90
2022-10-14T01:29:52.107Z,99.90
2022-10-14T01:32:27.427Z,99.90
2022-10-14T01:35:04.744Z,99.90
2022-10-14T01:37:35.839Z,99.90
2022-10-14T01:40:11.880Z,99.90
2022-10-14T01:42:42.707Z,99.90
2022-10-14T01:45:17.045Z,99.90
2022-10-14T01:47:49.857Z,99.90
2022-10-14T01:50:21.538Z,99.90
2022-10-14T01:52:54.986Z,99.90
2022-10-14T01:55:28.589Z,99.90
2022-10-14T01:57:58.738Z,99.90
2022-10-14T02:00:27.510Z,99.90
2022-10-14T02:02:57.257Z,99.90
2022-10-14T02:05:31.916Z,99.90
2022-10-14T02:08:08.227Z,99.90
2022-10-14T02:10:49.087Z,99.90
2022-10-14T02:13:29.568Z,99.90
2022-10-14T02:16:09.062Z,99.90
2022-10-14T02:18:43.307Z,99.90
2022-10-14T02:21:18.999Z,99.90
2022-10-14T02:23:53.261Z,99.90
2022-10-14T02:26:26.850Z,99.90
2022-10-14T02:28:57.037Z,99.90
2022-10-14T02:31:28.139Z,99.90
2022-10-14T02:34:03.547Z,99.90
2022-10-14T02:36:33.606Z,99.90
2022-10-14T02:39:09.216Z,99.90
2022-10-14T02:41:39.402Z,99.90
2022-10-14T02:44:09.864Z,99.90
2022-10-14T02:46:40.836Z,99.90
2022-10-14T02:49:12.928Z,99.90
2022-10-14T02:51:41.400Z,99.90
2022-10-14T02:54:12.746Z,99.90
2022-10-14T02:56:42.869Z,99.90
2022-10-14T02:59:11.427Z,99.90
2022-10-14T03:01:40.529Z,99.90
2022-10-14T03:04:12.587Z,99.90
2022-10-14T03:06:41.628Z,99.90
2022-10-14T03:09:10.396Z,99.90
2022-10-14T03:11:42.026Z,99.90
2022-10-14T03:14:17.077Z,99.90
2022-10-14T03:16:45.942Z,99.90
2022-10-14T03:19:21.929Z,99.90
2022-10-14T03:21:54.108Z,99.90
2022-10-14T03:24:23.836Z,99.90
2022-10-14T03:27:11.168Z,99.90
2022-10-14T03:29:39.698Z,99.90
2022-10-14T03:32:20.336Z,99.90
2022-10-14T03:35:23.251Z,99.90
2022-10-14T03:37:55.217Z,99.90
2022-10-14T03:40:30.230Z,99.90
2022-10-14T03:43:01.586Z,99.90
2022-10-14T03:45:38.018Z,99.90
2022-10-14T03:48:07.707Z,99.90
2022-10-14T03:50:41.537Z,99.90
2022-10-14T03:53:11.309Z,99.90
2022-10-14T03:55:39.799Z,99.90
2022-10-14T03:58:11.907Z,99.90
2022-10-14T04:00:45.737Z,99.90
2022-10-14T04:03:28.755Z,99.90
2022-10-14T04:05:59.148Z,99.90
2022-10-14T04:08:29.908Z,99.90
2022-10-14T04:11:02.767Z,99.90
2022-10-14T04:13:37.197Z,99.90
2022-10-14T04:16:07.206Z,99.90
2022-10-14T04:18:40.180Z,99.90
2022-10-14T04:21:13.939Z,99.90
2022-10-14T04:23:48.774Z,99.90
2022-10-14T04:26:18.466Z,99.90
2022-10-14T04:28:47.882Z,99.90
2022-10-14T04:31:29.670Z,99.90
2022-10-14T04:34:02.740Z,99.90
2022-10-14T04:36:37.907Z,99.90
2022-10-14T04:39:19.099Z,99.90
2022-10-14T04:41:47.607Z,99.90
2022-10-14T04:44:20.607Z,99.90
2022-10-14T04:46:52.120Z,99.90
2022-10-14T04:49:24.010Z,99.90
2022-10-14T04:52:04.264Z,99.90
2022-10-14T04:54:48.453Z,99.90
2022-10-14T04:57:17.317Z,99.90
2022-10-14T04:59:49.466Z,99.90
2022-10-14T05:02:23.355Z,99.90
2022-10-14T05:04:58.016Z,99.90
2022-10-14T05:07:27.750Z,99.90
2022-10-14T05:10:05.296Z,99.90
2022-10-14T05:12:41.498Z,99.90
2022-10-14T05:15:11.758Z,99.90
2022-10-14T05:18:00.579Z,99.90
2022-10-14T05:20:46.047Z,99.90
2022-10-14T05:23:16.173Z,99.90
2022-10-14T05:25:44.667Z,99.90
2022-10-14T05:28:13.678Z,99.90
2022-10-14T05:30:44.996Z,99.90
2022-10-14T05:33:14.519Z,99.90
2022-10-14T05:35:58.793Z,99.90
2022-10-14T05:38:34.498Z,99.90
2022-10-14T05:41:04.558Z,99.90
2022-10-14T05:43:33.761Z,99.90
2022-10-14T05:46:05.117Z,99.90
2022-10-14T05:48:38.628Z,99.90
2022-10-14T05:51:07.345Z,99.90
2022-10-14T05:53:40.307Z,99.90
2022-10-14T05:56:15.531Z,99.90
2022-10-14T05:58:44.052Z,99.90
2022-10-14T06:01:13.117Z,99.90
2022-10-14T06:03:43.496Z,99.90
2022-10-14T06:06:14.207Z,99.90
2022-10-14T06:08:45.094Z,99.90
2022-10-14T06:11:14.280Z,99.90
2022-10-14T06:13:43.265Z,99.90
2022-10-14T06:16:12.537Z,99.90
2022-10-14T06:18:41.399Z,99.90
2022-10-14T06:21:12.237Z,99.90
2022-10-14T06:23:40.719Z,99.90
2022-10-14T06:26:11.940Z,99.90
2022-10-14T06:28:40.666Z,99.90
2022-10-14T06:31:09.259Z,99.90
2022-10-14T06:33:37.657Z,99.90
2022-10-14T06:36:07.184Z,99.90
2022-10-14T06:38:35.783Z,99.90
2022-10-14T06:41:04.873Z,99.90
2022-10-14T06:43:35.375Z,99.90
2022-10-14T06:46:04.508Z,99.90
2022-10-14T06:48:33.110Z,99.90
2022-10-14T06:51:02.270Z,99.90
2022-10-14T06:53:31.198Z,99.90
2022-10-14T06:56:01.261Z,99.90
2022-10-14T06:58:30.497Z,99.90
2022-10-14T07:01:04.407Z,99.90
2022-10-14T07:03:32.987Z,99.90
2022-10-14T07:06:04.872Z,99.90
2022-10-14T07:08:33.521Z,99.90
2022-10-14T07:11:01.996Z,99.90
2022-10-14T07:13:31.246Z,99.90
2022-10-14T07:15:59.698Z,99.90
2022-10-14T07:18:29.532Z,99.90
2022-10-14T07:20:57.889Z,99.90
2022-10-14T07:23:26.470Z,99.90
2022-10-14T07:25:57.610Z,99.90
2022-10-14T07:28:26.563Z,99.90
2022-10-14T07:30:59.897Z,99.90
2022-10-14T07:33:29.807Z,99.90
2022-10-14T07:36:03.320Z,99.90
2022-10-14T07:38:32.738Z,99.90
2022-10-14T07:41:03.823Z,99.90
2022-10-14T07:43:33.187Z,99.90
2022-10-14T07:46:04.165Z,99.90
2022-10-14T07:48:52.250Z,99.90
2022-10-14T07:51:24.018Z,99.90
2022-10-14T07:53:53.272Z,99.90
2022-10-14T07:56:22.424Z,99.90
2022-10-14T07:58:51.010Z,99.90
2022-10-14T08:01:19.690Z,99.90
2022-10-14T08:03:50.381Z,99.90
2022-10-14T08:06:19.300Z,99.90
2022-10-14T08:08:48.296Z,99.90
2022-10-14T08:11:18.570Z,99.90
2022-10-14T08:13:47.458Z,99.90
2022-10-14T08:16:18.199Z,99.90
2022-10-14T08:18:47.917Z,99.90
2022-10-14T08:21:18.804Z,99.90
2022-10-14T08:23:47.507Z,99.90
2022-10-14T08:26:21.148Z,99.90
2022-10-14T08:28:50.119Z,99.60
2022-10-14T08:31:18.882Z,99.10
2022-10-14T08:33:47.757Z,97.80
2022-10-14T08:36:18.177Z,97.10
2022-10-14T08:38:47.091Z,97.30
2022-10-14T08:41:36.970Z,97.50
2022-10-14T08:44:15.820Z,97.00
2022-10-14T08:46:51.219Z,96.70
2022-10-14T08:49:26.962Z,96.00
2022-10-14T08:51:59.797Z,95.70
2022-10-14T08:54:36.497Z,95.40
2022-10-14T08:57:06.084Z,95.30
2022-10-14T08:59:39.144Z,95.30
2022-10-14T09:02:21.701Z,94.60
2022-10-14T09:04:50.687Z,94.50
2022-10-14T09:07:22.173Z,94.70
2022-10-14T09:09:54.409Z,94.50
2022-10-14T09:12:27.718Z,93.70
2022-10-14T09:15:04.874Z,93.70
2022-10-14T09:17:39.461Z,93.70
2022-10-14T09:20:18.717Z,93.60
2022-10-14T09:22:54.899Z,93.60
2022-10-14T09:25:23.361Z,93.40
2022-10-14T09:27:52.257Z,93.50
2022-10-14T09:30:20.658Z,93.70
2022-10-14T09:32:51.778Z,93.50
2022-10-14T09:35:25.951Z,92.80
2022-10-14T09:37:55.876Z,92.10
2022-10-14T09:40:31.308Z,91.60
2022-10-14T09:43:04.310Z,91.70
2022-10-14T09:45:49.347Z,90.60
2022-10-14T09:48:21.767Z,89.00
2022-10-14T09:50:52.978Z,88.10
2022-10-14T09:53:29.318Z,89.30
2022-10-14T09:56:00.419Z,88.50
2022-10-14T09:58:57.499Z,89.50
2022-10-14T10:01:28.676Z,88.80
2022-10-14T10:03:58.443Z,90.80
2022-10-14T10:06:28.248Z,87.50
2022-10-14T10:09:01.359Z,81.40
2022-10-14T10:11:33.429Z,77.40
2022-10-14T10:14:18.692Z,76.60
2022-10-14T10:16:47.227Z,71.90
2022-10-14T10:19:32.198Z,71.40
2022-10-14T10:22:22.942Z,69.20
2022-10-14T10:25:14.129Z,66.00
2022-10-14T10:27:45.750Z,64.40
2022-10-14T10:30:24.439Z,64.20
2022-10-14T10:33:06.266Z,61.40
2022-10-14T10:35:48.997Z,59.10
2022-10-14T10:38:24.398Z,57.50
2022-10-14T10:41:09.078Z,57.10
2022-10-14T10:43:57.429Z,55.80
2022-10-14T10:46:56.078Z,54.60
2022-10-14T10:49:44.067Z,53.20
2022-10-14T10:52:24.473Z,53.20
2022-10-14T10:54:59.446Z,53.20
2022-10-14T10:57:44.067Z,52.90
2022-10-14T11:00:16.571Z,53.70
2022-10-14T11:03:02.878Z,54.10
2022-10-14T11:05:56.334Z,53.40
2022-10-14T11:09:11.277Z,53.20
2022-10-14T11:12:12.950Z,52.70
2022-10-14T11:15:05.129Z,52.70
2022-10-14T11:17:42.372Z,53.00
2022-10-14T11:20:22.618Z,53.00
2022-10-14T11:23:04.730Z,52.70
2022-10-14T11:25:44.489Z,52.80
2022-10-14T11:28:23.551Z,52.90
2022-10-14T11:31:02.353Z,52.40
2022-10-14T11:33:45.539Z,52.80
2022-10-14T11:36:27.960Z,53.00
2022-10-14T11:39:25.951Z,52.00
2022-10-14T11:42:11.319Z,52.00
2022-10-14T11:44:41.628Z,51.60
2022-10-14T11:47:18.581Z,51.40
2022-10-14T11:49:54.028Z,50.50
2022-10-14T11:52:28.916Z,50.20
2022-10-14T11:55:02.008Z,49.70
2022-10-14T11:57:35.479Z,49.70
2022-10-14T12:00:12.465Z,49.70
2022-10-14T12:02:52.903Z,48.90
2022-10-14T12:05:31.777Z,47.10
2022-10-14T12:08:10.052Z,46.60
2022-10-14T12:10:44.187Z,46.90
2022-10-14T12:13:16.856Z,46.20
2022-10-14T12:15:50.512Z,44.60
2022-10-14T12:18:20.570Z,45.00
2022-10-14T12:20:55.880Z,45.20
2022-10-14T12:23:32.888Z,45.10
2022-10-14T12:26:06.960Z,45.00
2022-10-14T12:28:38.712Z,44.90
2022-10-14T12:31:33.741Z,44.80
2022-10-14T12:34:31.339Z,44.30
2022-10-14T12:37:00.088Z,44.50
2022-10-14T12:39:36.250Z,44.10
2022-10-14T12:42:07.026Z,44.30
2022-10-14T12:44:44.220Z,44.20
2022-10-14T12:47:21.996Z,44.40
2022-10-14T12:49:54.547Z,43.90
2022-10-14T12:52:27.828Z,44.90
2022-10-14T12:54:57.070Z,44.10
2022-10-14T12:57:30.510Z,43.70
2022-10-14T13:00:04.353Z,43.90
2022-10-14T13:02:35.139Z,44.20
2022-10-14T13:05:09.197Z,44.00
2022-10-14T13:07:46.326Z,44.20
2022-10-14T13:10:50.569Z,44.20
2022-10-14T13:13:55.790Z,44.30
2022-10-14T13:17:06.019Z,44.40
2022-10-14T13:19:44.517Z,44.30
2022-10-14T13:22:42.457Z,44.30
2022-10-14T13:25:19.960Z,44.50
2022-10-14T13:28:00.998Z,44.40
2022-10-14T13:30:49.747Z,44.50
2022-10-14T13:33:23.288Z,44.70
2022-10-14T13:36:01.275Z,44.60
2022-10-14T13:38:34.886Z,44.40
2022-10-14T13:41:04.628Z,44.70
2022-10-14T13:43:39.343Z,44.90
2022-10-14T13:46:15.117Z,45.00
2022-10-14T13:48:47.037Z,45.20
2022-10-14T13:51:36.764Z,45.30
2022-10-14T13:54:18.344Z,45.50
2022-10-14T13:57:38.286Z,45.70
2022-10-14T14:02:43.797Z,46.20
2022-10-14T14:05:20.909Z,46.50
2022-10-14T14:11:03.657Z,47.10
2022-10-14T14:13:33.407Z,47.20
2022-10-14T14:16:02.109Z,47.50
2022-10-14T14:18:49.287Z,47.80
2022-10-14T14:21:27.188Z,48.30
2022-10-14T14:23:57.876Z,48.90
2022-10-14T14:26:33.981Z,48.90
2022-10-14T14:29:06.117Z,48.80
2022-10-14T14:34:25.520Z,48.80
2022-10-14T14:37:01.368Z,49.00
2022-10-14T14:39:35.358Z,48.60
2022-10-14T14:42:05.199Z,48.50
2022-10-14T14:44:35.888Z,48.00
2022-10-14T14:47:06.198Z,47.70
2022-10-14T14:49:38.545Z,47.50
2022-10-14T14:52:07.840Z,47.30
2022-10-14T14:54:44.941Z,47.00
2022-10-14T14:57:19.931Z,47.20
2022-10-14T15:00:01.963Z,47.80
2022-10-14T15:02:32.967Z,47.20
2022-10-14T15:05:03.866Z,47.10
2022-10-14T15:07:32.431Z,47.20
2022-10-14T15:10:02.769Z,47.20
2022-10-14T15:12:34.462Z,47.40
2022-10-14T15:15:03.997Z,47.50
2022-10-14T15:17:35.238Z,47.80
2022-10-14T15:20:28.705Z,47.90
2022-10-14T15:22:57.147Z,48.10
2022-10-14T15:25:31.351Z,48.20
2022-10-14T15:28:02.163Z,48.40
2022-10-14T15:30:35.033Z,48.60
2022-10-14T15:33:13.947Z,49.60
2022-10-14T15:35:43.157Z,49.70
2022-10-14T15:38:17.288Z,49.90
2022-10-14T15:40:46.787Z,50.00
2022-10-14T15:43:19.191Z,49.90
2022-10-14T15:46:11.760Z,50.00
2022-10-14T15:48:40.627Z,50.20
2022-10-14T15:51:14.020Z,50.40
2022-10-14T15:53:42.612Z,50.60
2022-10-14T15:56:11.329Z,50.80
2022-10-14T15:58:41.087Z,51.20
2022-10-14T16:01:12.636Z,51.20
2022-10-14T16:03:41.318Z,51.40
2022-10-14T16:06:11.758Z,51.60
2022-10-14T16:08:42.189Z,51.90
2022-10-14T16:11:18.557Z,52.00
2022-10-14T16:13:48.526Z,52.10
2022-10-14T16:16:20.229Z,52.30
2022-10-14T16:18:48.758Z,52.50
2022-10-14T16:21:18.058Z,52.70
2022-10-14T16:23:46.490Z,52.90
2022-10-14T16:26:15.219Z,52.90
2022-10-14T16:28:44.514Z,53.00
2022-10-14T16:31:16.099Z,53.20
2022-10-14T16:33:45.800Z,53.40
2022-10-14T16:36:16.397Z,53.40
2022-10-14T16:38:45.072Z,53.60
2022-10-14T16:41:14.068Z,53.70
2022-10-14T16:43:42.629Z,53.90
2022-10-14T16:46:15.738Z,54.00
2022-10-14T16:48:44.711Z,54.10
2022-10-14T16:51:13.260Z,54.30
2022-10-14T16:53:41.830Z,54.50
2022-10-14T16:56:31.733Z,54.70
2022-10-14T16:59:00.747Z,54.70
2022-10-14T17:01:31.499Z,54.80
2022-10-14T17:04:00.054Z,55.20
2022-10-14T17:06:28.666Z,55.50
2022-10-14T17:08:57.209Z,55.40
2022-10-14T17:11:27.453Z,55.30
2022-10-14T17:13:57.677Z,55.30
2022-10-14T17:16:28.532Z,55.70
2022-10-14T17:18:59.566Z,56.00
2022-10-14T17:21:30.448Z,56.10
2022-10-14T17:24:02.597Z,56.00
2022-10-14T17:26:33.080Z,56.10
2022-10-14T17:29:01.789Z,56.30
2022-10-14T17:31:31.706Z,56.40
2022-10-14T17:34:01.917Z,56.40
2022-10-14T17:36:31.827Z,57.00
2022-10-14T17:39:00.913Z,56.60
2022-10-14T17:41:30.808Z,56.60
2022-10-14T17:44:01.587Z,56.70
2022-10-14T17:46:31.521Z,56.70
2022-10-14T17:49:04.009Z,56.70
2022-10-14T17:51:33.539Z,56.90
2022-10-14T17:54:03.649Z,57.00
2022-10-14T17:56:33.949Z,57.10
2022-10-14T17:59:04.607Z,57.20
2022-10-14T18:01:37.962Z,57.50
2022-10-14T18:04:23.119Z,58.50
2022-10-14T18:06:52.669Z,58.20
2022-10-14T18:09:21.343Z,58.50
2022-10-14T18:14:40.913Z,59.70
2022-10-14T18:17:12.873Z,59.70
2022-10-14T18:19:46.161Z,59.80
2022-10-14T18:22:18.620Z,59.80
2022-10-14T18:24:47.128Z,59.80
2022-10-14T18:27:15.579Z,59.90
2022-10-14T18:29:44.122Z,59.80
2022-10-14T18:32:12.517Z,59.80
2022-10-14T18:34:42.205Z,59.90
2022-10-14T18:37:10.906Z,60.00
2022-10-14T18:39:39.448Z,60.30
2022-10-14T18:42:07.943Z,60.60
2022-10-14T18:44:36.496Z,60.80
2022-10-14T18:47:04.958Z,61.10
2022-10-14T18:49:38.167Z,61.30
2022-10-14T18:52:10.789Z,61.50
2022-10-14T18:54:39.387Z,61.60
2022-10-14T18:57:09.458Z,61.70
2022-10-14T18:59:38.086Z,61.90
2022-10-14T19:02:07.279Z,62.30
2022-10-14T19:04:36.618Z,62.60
2022-10-14T19:07:08.575Z,62.80
2022-10-14T19:09:38.428Z,62.90
2022-10-14T19:12:27.746Z,62.90
2022-10-14T19:14:56.327Z,63.00
2022-10-14T19:17:24.768Z,63.20
2022-10-14T19:19:53.248Z,63.30
2022-10-14T19:22:21.981Z,63.30
2022-10-14T19:24:52.037Z,63.50
2022-10-14T19:27:20.935Z,63.50
2022-10-14T19:29:49.647Z,63.80
2022-10-14T19:32:18.089Z,64.00
2022-10-14T19:34:47.797Z,64.20
2022-10-14T19:37:16.200Z,64.50
2022-10-14T19:39:44.807Z,65.70
2022-10-14T19:42:14.827Z,66.20
2022-10-14T19:44:43.478Z,66.70
2022-10-14T19:47:12.056Z,67.00
2022-10-14T19:49:40.577Z,67.60
2022-10-14T19:52:09.016Z,67.50
2022-10-14T19:54:37.588Z,67.60
2022-10-14T19:57:06.100Z,67.70
2022-10-14T19:59:36.027Z,68.00
2022-10-14T20:02:04.566Z,68.90
2022-10-14T20:04:33.077Z,70.00
2022-10-14T20:07:01.510Z,70.00
2022-10-14T20:09:31.408Z,70.10
2022-10-14T20:12:00.056Z,70.10
2022-10-14T20:14:30.465Z,70.30
2022-10-14T20:17:01.736Z,70.50
2022-10-14T20:19:30.338Z,70.70
2022-10-14T20:22:01.591Z,71.20
2022-10-14T20:24:30.127Z,71.40
2022-10-14T20:26:58.534Z,71.90
2022-10-14T20:29:26.987Z,72.20
2022-10-14T20:31:55.547Z,72.50
2022-10-14T20:34:25.637Z,72.60
2022-10-14T20:36:54.269Z,72.90
2022-10-14T20:39:23.248Z,73.20
2022-10-14T20:41:51.765Z,73.40
2022-10-14T20:44:23.879Z,73.80
2022-10-14T20:46:52.789Z,74.20
2022-10-14T20:49:21.378Z,74.60
2022-10-14T20:51:51.076Z,75.10
2022-10-14T20:54:19.712Z,75.80
2022-10-14T20:56:50.318Z,76.20
2022-10-14T20:59:18.846Z,76.80
2022-10-14T21:01:47.377Z,77.40
2022-10-14T21:04:15.947Z,77.90
2022-10-14T21:06:44.336Z,78.60
2022-10-14T21:09:14.347Z,79.20
2022-10-14T21:11:43.301Z,79.70
2022-10-14T21:14:12.327Z,80.10
2022-10-14T21:16:42.258Z,80.40
2022-10-14T21:19:11.507Z,80.80
2022-10-14T21:21:42.297Z,81.20
2022-10-14T21:24:16.715Z,81.60
2022-10-14T21:26:45.760Z,82.00
2022-10-14T21:29:14.608Z,82.10
2022-10-14T21:31:43.019Z,82.40
2022-10-14T21:34:12.868Z,82.70
2022-10-14T21:36:41.617Z,83.60
2022-10-14T21:39:11.859Z,83.70
2022-10-14T21:41:42.596Z,83.90
2022-10-14T21:44:15.236Z,84.10
2022-10-14T21:46:43.756Z,84.20
2022-10-14T21:49:13.126Z,84.40
2022-10-14T21:51:41.747Z,84.90
2022-10-14T21:54:12.725Z,85.30
2022-10-14T21:56:42.739Z,86.00
2022-10-14T21:59:11.388Z,86.40
2022-10-14T22:01:40.104Z,86.90
2022-10-14T22:04:08.860Z,87.10
2022-10-14T22:06:37.635Z,87.30
2022-10-14T22:09:08.187Z,87.60
2022-10-14T22:11:38.202Z,88.60
2022-10-14T22:14:11.216Z,89.30
2022-10-14T22:16:40.049Z,89.70
2022-10-14T22:19:08.786Z,90.00
2022-10-14T22:21:38.797Z,90.10
2022-10-14T22:26:42.271Z,90.30
2022-10-14T22:29:15.217Z,90.40
2022-10-14T22:31:44.207Z,90.50
2022-10-14T22:34:14.222Z,90.60
2022-10-14T22:36:42.911Z,91.10
2022-10-14T22:39:14.226Z,91.10
2022-10-14T22:41:42.658Z,91.70
2022-10-14T22:44:12.757Z,92.50
2022-10-14T22:46:41.659Z,92.90
2022-10-14T22:49:10.547Z,93.50
2022-10-14T22:51:41.534Z,93.40
2022-10-14T22:54:10.387Z,93.50
2022-10-14T22:56:39.187Z,93.40
2022-10-14T22:59:09.687Z,93.30
2022-10-14T23:01:40.376Z,93.80
2022-10-14T23:04:09.886Z,93.60
2022-10-14T23:06:38.623Z,93.70
2022-10-14T23:09:07.407Z,94.00
2022-10-14T23:11:35.809Z,94.10
2022-10-14T23:14:07.377Z,94.30
2022-10-14T23:16:36.917Z,94.70
2022-10-14T23:19:06.907Z,94.80
2022-10-14T23:21:37.026Z,95.20
2022-10-14T23:24:08.177Z,95.60
2022-10-14T23:26:37.110Z,96.40
2022-10-14T23:29:07.691Z,96.60
2022-10-14T23:31:37.951Z,96.60
2022-10-14T23:34:09.478Z,96.80
2022-10-14T23:36:38.279Z,96.90
2022-10-14T23:39:07.267Z,97.10
2022-10-14T23:41:35.699Z,97.60
2022-10-14T23:44:04.228Z,97.80
2022-10-14T23:46:32.680Z,97.70
2022-10-14T23:49:07.430Z,98.00
2022-10-14T23:51:44.360Z,98.10
2022-10-14T23:54:12.976Z,98.00
2022-10-14T23:56:41.312Z,97.80
2022-10-14T23:59:09.857Z,97.80
